首页
METAR-TAF:

METAR-TAF

机场 :

烏爾米耶機場

乌尔米耶, 伊朗

纬度: 37-32N, 经度: 045-05E, 海拔: 1297米

当前天气观测

该预报发布于49分钟前的17:00 UTC
风速4节,风向
温度 19°C
湿度 52%
气压 1020 hPa
能见度10公里或以上
少量云层高于4000英尺

METAR: OITR 061700Z 36004KT 9999 FEW040 19/09 Q1020

时间: 22:19 (17:49 UTC)

预报

该预报发布于6小时和49分钟前的11:00 UTC
预报有效从06日的 12点(UTC)到 07日的 18点(UTC)
风速8节,风向东转东北
能見度: 7000
少量云层高于3500英尺
散云层高于9000英尺
短暂存在
从 06日的 12点(UTC)到 06日的 15点(UTC)
风速18节,风向东转东北
能見度: 4000
少量云层高于3500英尺, 积雨云.
散云层高于4000英尺
多云层高于10000英尺
雷暴, 雨
成为
从 06日的 18点(UTC)到 06日的 20点(UTC)
风速8节,风向西
能见度10公里或以上
1500米以下无云,无积雨云

TAF: OITR 061100Z 0612/0718 06008KT 7000 FEW035 SCT090 TEMPO 0612/0615 06018KT 4000 TSRA FEW035CB SCT040 BKN100 BECMG 0618/0620 27008KT CAVOK

超过4000个机场的气象观测和天气预报(METAR&TAF报告)。

可查询的气象台以黄色和红色小点在地图上表示。

将鼠标移到小点上方,可查看气象台名称。

然后点击查看天气观测和预报。

如需切换地图:点击带黑十字的绿色按钮放大地图;点击带横线的绿色按钮缩小地图;或者点击绿色箭头查看邻近地区的地图。


METAR-TAF: